sensor_id;sensor_type;location;lat;lon;timestamp;temperature;humidity
45435;DHT22;31183;47.404;8.500;2023-08-08T00:02:20;14.60;99.90
45435;DHT22;31183;47.404;8.500;2023-08-08T00:04:48;14.60;99.90
45435;DHT22;31183;47.404;8.500;2023-08-08T00:07:15;14.60;99.90
45435;DHT22;31183;47.404;8.500;2023-08-08T00:09:42;14.60;99.90
45435;DHT22;31183;47.404;8.500;2023-08-08T00:12:08;14.60;99.90
45435;DHT22;31183;47.404;8.500;2023-08-08T00:14:35;14.60;99.90
45435;DHT22;31183;47.404;8.500;2023-08-08T00:17:02;14.70;99.90
45435;DHT22;31183;47.404;8.500;2023-08-08T00:19:28;14.70;99.90
45435;DHT22;31183;47.404;8.500;2023-08-08T00:21:55;14.70;99.90
45435;DHT22;31183;47.404;8.500;2023-08-08T00:24:22;14.60;99.90
45435;DHT22;31183;47.404;8.500;2023-08-08T00:26:49;14.60;99.90
45435;DHT22;31183;47.404;8.500;2023-08-08T00:29:15;14.60;99.90
45435;DHT22;31183;47.404;8.500;2023-08-08T00:31:42;14.70;99.90
45435;DHT22;31183;47.404;8.500;2023-08-08T00:34:09;14.60;99.90
45435;DHT22;31183;47.404;8.500;2023-08-08T00:36:35;14.60;99.90
45435;DHT22;31183;47.404;8.500;2023-08-08T00:39:02;14.60;99.90
45435;DHT22;31183;47.404;8.500;2023-08-08T00:41:28;14.60;99.90
45435;DHT22;31183;47.404;8.500;2023-08-08T00:43:55;14.60;99.90
45435;DHT22;31183;47.404;8.500;2023-08-08T00:46:22;14.60;99.90
45435;DHT22;31183;47.404;8.500;2023-08-08T00:48:54;14.50;99.90
45435;DHT22;31183;47.404;8.500;2023-08-08T00:51:21;14.50;99.90
45435;DHT22;31183;47.404;8.500;2023-08-08T00:53:48;14.50;99.90
45435;DHT22;31183;47.404;8.500;2023-08-08T00:56:16;14.60;99.90
45435;DHT22;31183;47.404;8.500;2023-08-08T00:58:43;14.60;99.90
45435;DHT22;31183;47.404;8.500;2023-08-08T01:01:12;14.70;99.90
45435;DHT22;31183;47.404;8.500;2023-08-08T01:03:39;14.70;99.90
45435;DHT22;31183;47.404;8.500;2023-08-08T01:06:13;14.80;99.90
45435;DHT22;31183;47.404;8.500;2023-08-08T01:09:48;14.80;99.90
45435;DHT22;31183;47.404;8.500;2023-08-08T01:11:43;14.80;99.90
45435;DHT22;31183;47.404;8.500;2023-08-08T01:14:11;14.80;99.90
45435;DHT22;31183;47.404;8.500;2023-08-08T01:16:39;14.90;99.90
45435;DHT22;31183;47.404;8.500;2023-08-08T01:19:06;14.90;99.90
45435;DHT22;31183;47.404;8.500;2023-08-08T01:21:35;14.90;99.90
45435;DHT22;31183;47.404;8.500;2023-08-08T01:24:21;14.90;99.90
45435;DHT22;31183;47.404;8.500;2023-08-08T01:26:48;14.90;99.90
45435;DHT22;31183;47.404;8.500;2023-08-08T01:29:15;14.90;99.90
45435;DHT22;31183;47.404;8.500;2023-08-08T01:31:42;14.90;99.90
45435;DHT22;31183;47.404;8.500;2023-08-08T01:34:09;14.90;99.90
45435;DHT22;31183;47.404;8.500;2023-08-08T01:36:56;14.90;99.90
45435;DHT22;31183;47.404;8.500;2023-08-08T01:39:30;14.80;99.90
45435;DHT22;31183;47.404;8.500;2023-08-08T01:41:58;14.80;99.90
45435;DHT22;31183;47.404;8.500;2023-08-08T01:44:28;14.80;99.90
45435;DHT22;31183;47.404;8.500;2023-08-08T01:46:55;14.80;99.90
45435;DHT22;31183;47.404;8.500;2023-08-08T01:49:22;14.80;99.90
45435;DHT22;31183;47.404;8.500;2023-08-08T01:51:48;14.80;99.90
45435;DHT22;31183;47.404;8.500;2023-08-08T01:54:17;14.80;99.90
45435;DHT22;31183;47.404;8.500;2023-08-08T01:56:43;14.80;99.90
45435;DHT22;31183;47.404;8.500;2023-08-08T01:59:10;14.80;99.90
45435;DHT22;31183;47.404;8.500;2023-08-08T02:01:39;14.80;99.90
45435;DHT22;31183;47.404;8.500;2023-08-08T02:04:06;14.70;99.90
45435;DHT22;31183;47.404;8.500;2023-08-08T02:06:33;14.70;99.90
45435;DHT22;31183;47.404;8.500;2023-08-08T02:08:59;14.70;99.90
45435;DHT22;31183;47.404;8.500;2023-08-08T02:11:26;14.80;99.90
45435;DHT22;31183;47.404;8.500;2023-08-08T02:13:52;14.80;99.90
45435;DHT22;31183;47.404;8.500;2023-08-08T02:16:19;14.80;99.90
45435;DHT22;31183;47.404;8.500;2023-08-08T02:18:46;14.80;99.90
45435;DHT22;31183;47.404;8.500;2023-08-08T02:21:12;14.80;99.90
45435;DHT22;31183;47.404;8.500;2023-08-08T02:23:39;14.80;99.90
45435;DHT22;31183;47.404;8.500;2023-08-08T02:26:06;14.70;99.90
45435;DHT22;31183;47.404;8.500;2023-08-08T02:28:32;14.80;99.90
45435;DHT22;31183;47.404;8.500;2023-08-08T02:30:59;14.80;99.90
45435;DHT22;31183;47.404;8.500;2023-08-08T02:33:26;14.80;99.90
45435;DHT22;31183;47.404;8.500;2023-08-08T02:35:52;14.70;99.90
45435;DHT22;31183;47.404;8.500;2023-08-08T02:38:19;14.70;99.90
45435;DHT22;31183;47.404;8.500;2023-08-08T02:40:46;14.70;99.90
45435;DHT22;31183;47.404;8.500;2023-08-08T02:43:12;14.70;99.90
45435;DHT22;31183;47.404;8.500;2023-08-08T02:45:39;14.60;99.90
45435;DHT22;31183;47.404;8.500;2023-08-08T02:48:06;14.60;99.90
45435;DHT22;31183;47.404;8.500;2023-08-08T02:50:33;14.60;99.90
45435;DHT22;31183;47.404;8.500;2023-08-08T02:52:59;14.60;99.90
45435;DHT22;31183;47.404;8.500;2023-08-08T02:55:26;14.60;99.90
45435;DHT22;31183;47.404;8.500;2023-08-08T02:57:53;14.60;99.90
45435;DHT22;31183;47.404;8.500;2023-08-08T03:00:19;14.50;99.90
45435;DHT22;31183;47.404;8.500;2023-08-08T03:02:46;14.50;99.90
45435;DHT22;31183;47.404;8.500;2023-08-08T03:05:13;14.50;99.90
45435;DHT22;31183;47.404;8.500;2023-08-08T03:07:40;14.50;99.90
45435;DHT22;31183;47.404;8.500;2023-08-08T03:10:06;14.40;99.90
45435;DHT22;31183;47.404;8.500;2023-08-08T03:12:33;14.40;99.90
45435;DHT22;31183;47.404;8.500;2023-08-08T03:15:00;14.40;99.90
45435;DHT22;31183;47.404;8.500;2023-08-08T03:17:27;14.40;99.90
45435;DHT22;31183;47.404;8.500;2023-08-08T03:19:53;14.30;99.90
45435;DHT22;31183;47.404;8.500;2023-08-08T03:22:20;14.30;99.90
45435;DHT22;31183;47.404;8.500;2023-08-08T03:24:47;14.30;99.90
45435;DHT22;31183;47.404;8.500;2023-08-08T03:27:13;14.30;99.90
45435;DHT22;31183;47.404;8.500;2023-08-08T03:29:40;14.30;99.90
45435;DHT22;31183;47.404;8.500;2023-08-08T03:32:07;14.30;99.90
45435;DHT22;31183;47.404;8.500;2023-08-08T03:34:33;14.30;99.90
45435;DHT22;31183;47.404;8.500;2023-08-08T03:37:00;14.30;99.90
45435;DHT22;31183;47.404;8.500;2023-08-08T03:39:27;14.20;99.90
45435;DHT22;31183;47.404;8.500;2023-08-08T03:41:54;14.20;99.90
45435;DHT22;31183;47.404;8.500;2023-08-08T03:44:21;14.20;99.90
45435;DHT22;31183;47.404;8.500;2023-08-08T03:46:47;14.20;99.90
45435;DHT22;31183;47.404;8.500;2023-08-08T03:49:14;14.20;99.90
45435;DHT22;31183;47.404;8.500;2023-08-08T03:51:41;14.20;99.90
45435;DHT22;31183;47.404;8.500;2023-08-08T03:54:07;14.10;99.90
45435;DHT22;31183;47.404;8.500;2023-08-08T03:56:34;14.20;99.90
45435;DHT22;31183;47.404;8.500;2023-08-08T03:59:01;14.20;99.90
45435;DHT22;31183;47.404;8.500;2023-08-08T04:01:27;14.10;99.90
45435;DHT22;31183;47.404;8.500;2023-08-08T04:03:54;14.10;99.90
45435;DHT22;31183;47.404;8.500;2023-08-08T04:06:21;14.10;99.90
45435;DHT22;31183;47.404;8.500;2023-08-08T04:08:47;14.10;99.90
45435;DHT22;31183;47.404;8.500;2023-08-08T04:11:14;14.10;99.90
45435;DHT22;31183;47.404;8.500;2023-08-08T04:13:41;14.10;99.90
45435;DHT22;31183;47.404;8.500;2023-08-08T04:16:07;14.10;99.90
45435;DHT22;31183;47.404;8.500;2023-08-08T04:18:34;14.10;99.90
45435;DHT22;31183;47.404;8.500;2023-08-08T04:21:01;14.00;99.90
45435;DHT22;31183;47.404;8.500;2023-08-08T04:23:27;14.00;99.90
45435;DHT22;31183;47.404;8.500;2023-08-08T04:25:54;14.00;99.90
45435;DHT22;31183;47.404;8.500;2023-08-08T04:28:21;14.00;99.90
45435;DHT22;31183;47.404;8.500;2023-08-08T04:30:47;14.00;99.90
45435;DHT22;31183;47.404;8.500;2023-08-08T04:33:14;14.00;99.90
45435;DHT22;31183;47.404;8.500;2023-08-08T04:35:41;14.00;99.90
45435;DHT22;31183;47.404;8.500;2023-08-08T04:38:08;14.00;99.90
45435;DHT22;31183;47.404;8.500;2023-08-08T04:40:35;14.00;99.90
45435;DHT22;31183;47.404;8.500;2023-08-08T04:43:03;14.00;99.90
45435;DHT22;31183;47.404;8.500;2023-08-08T04:45:30;14.00;99.90
45435;DHT22;31183;47.404;8.500;2023-08-08T04:47:56;14.00;99.90
45435;DHT22;31183;47.404;8.500;2023-08-08T04:50:24;14.00;99.90
45435;DHT22;31183;47.404;8.500;2023-08-08T04:52:51;14.00;99.90
45435;DHT22;31183;47.404;8.500;2023-08-08T04:55:17;14.00;99.90
45435;DHT22;31183;47.404;8.500;2023-08-08T04:57:44;14.10;99.90
45435;DHT22;31183;47.404;8.500;2023-08-08T05:00:11;14.10;99.90
45435;DHT22;31183;47.404;8.500;2023-08-08T05:02:38;14.00;99.90
45435;DHT22;31183;47.404;8.500;2023-08-08T05:05:07;14.10;99.90
45435;DHT22;31183;47.404;8.500;2023-08-08T05:07:35;14.10;99.90
45435;DHT22;31183;47.404;8.500;2023-08-08T05:10:04;14.10;99.90
45435;DHT22;31183;47.404;8.500;2023-08-08T05:12:31;14.20;99.90
45435;DHT22;31183;47.404;8.500;2023-08-08T05:14:57;14.20;99.90
45435;DHT22;31183;47.404;8.500;2023-08-08T05:17:24;14.30;99.90
45435;DHT22;31183;47.404;8.500;2023-08-08T05:19:51;14.30;99.90
45435;DHT22;31183;47.404;8.500;2023-08-08T05:22:17;14.50;99.90
45435;DHT22;31183;47.404;8.500;2023-08-08T05:24:44;14.50;99.90
45435;DHT22;31183;47.404;8.500;2023-08-08T05:27:10;14.50;99.90
45435;DHT22;31183;47.404;8.500;2023-08-08T05:29:37;14.40;99.90
45435;DHT22;31183;47.404;8.500;2023-08-08T05:32:06;14.30;99.90
45435;DHT22;31183;47.404;8.500;2023-08-08T05:34:34;14.50;99.90
45435;DHT22;31183;47.404;8.500;2023-08-08T05:37:01;14.50;99.90
45435;DHT22;31183;47.404;8.500;2023-08-08T05:39:43;14.60;99.90
45435;DHT22;31183;47.404;8.500;2023-08-08T05:42:10;14.80;99.90
45435;DHT22;31183;47.404;8.500;2023-08-08T05:44:36;14.80;99.90
45435;DHT22;31183;47.404;8.500;2023-08-08T05:47:03;14.60;99.90
45435;DHT22;31183;47.404;8.500;2023-08-08T05:49:30;14.60;99.90
45435;DHT22;31183;47.404;8.500;2023-08-08T05:51:56;14.60;99.90
45435;DHT22;31183;47.404;8.500;2023-08-08T05:54:23;14.60;99.90
45435;DHT22;31183;47.404;8.500;2023-08-08T05:56:50;14.70;99.90
45435;DHT22;31183;47.404;8.500;2023-08-08T05:59:17;14.70;99.90
45435;DHT22;31183;47.404;8.500;2023-08-08T06:01:43;14.80;99.90
45435;DHT22;31183;47.404;8.500;2023-08-08T06:04:11;14.80;99.90
45435;DHT22;31183;47.404;8.500;2023-08-08T06:06:37;14.90;99.90
45435;DHT22;31183;47.404;8.500;2023-08-08T06:09:04;14.90;99.90
45435;DHT22;31183;47.404;8.500;2023-08-08T06:11:31;14.90;99.90
45435;DHT22;31183;47.404;8.500;2023-08-08T06:13:58;14.80;99.90
45435;DHT22;31183;47.404;8.500;2023-08-08T06:16:25;14.80;99.90
45435;DHT22;31183;47.404;8.500;2023-08-08T06:18:52;14.70;99.90
45435;DHT22;31183;47.404;8.500;2023-08-08T06:21:19;14.60;99.90
45435;DHT22;31183;47.404;8.500;2023-08-08T06:23:45;14.70;99.90
45435;DHT22;31183;47.404;8.500;2023-08-08T06:26:13;14.80;99.90
45435;DHT22;31183;47.404;8.500;2023-08-08T06:28:40;14.90;99.90
45435;DHT22;31183;47.404;8.500;2023-08-08T06:31:07;14.90;99.90
45435;DHT22;31183;47.404;8.500;2023-08-08T06:33:34;14.80;99.90
45435;DHT22;31183;47.404;8.500;2023-08-08T06:36:01;14.90;99.90
45435;DHT22;31183;47.404;8.500;2023-08-08T06:38:29;14.80;99.90
45435;DHT22;31183;47.404;8.500;2023-08-08T06:41:01;14.90;99.90
45435;DHT22;31183;47.404;8.500;2023-08-08T06:43:29;15.00;99.90
45435;DHT22;31183;47.404;8.500;2023-08-08T06:45:56;15.10;99.90
45435;DHT22;31183;47.404;8.500;2023-08-08T06:48:23;15.10;99.90
45435;DHT22;31183;47.404;8.500;2023-08-08T06:50:50;15.20;99.90
45435;DHT22;31183;47.404;8.500;2023-08-08T06:53:17;15.20;99.90
45435;DHT22;31183;47.404;8.500;2023-08-08T06:55:43;15.10;99.90
45435;DHT22;31183;47.404;8.500;2023-08-08T06:58:10;15.20;99.90
45435;DHT22;31183;47.404;8.500;2023-08-08T07:00:37;15.20;99.90
45435;DHT22;31183;47.404;8.500;2023-08-08T07:03:03;15.20;99.90
45435;DHT22;31183;47.404;8.500;2023-08-08T07:05:30;15.30;99.90
45435;DHT22;31183;47.404;8.500;2023-08-08T07:07:57;15.30;99.90
45435;DHT22;31183;47.404;8.500;2023-08-08T07:10:23;15.40;99.90
45435;DHT22;31183;47.404;8.500;2023-08-08T07:12:50;15.60;99.90
45435;DHT22;31183;47.404;8.500;2023-08-08T07:15:17;15.70;99.90
45435;DHT22;31183;47.404;8.500;2023-08-08T07:17:44;15.70;99.90
45435;DHT22;31183;47.404;8.500;2023-08-08T07:20:11;15.80;99.90
45435;DHT22;31183;47.404;8.500;2023-08-08T07:22:40;15.90;99.90
45435;DHT22;31183;47.404;8.500;2023-08-08T07:25:07;15.90;99.90
45435;DHT22;31183;47.404;8.500;2023-08-08T07:27:33;15.90;99.90
45435;DHT22;31183;47.404;8.500;2023-08-08T07:30:00;15.90;99.90
45435;DHT22;31183;47.404;8.500;2023-08-08T07:32:27;16.00;99.90
45435;DHT22;31183;47.404;8.500;2023-08-08T07:34:56;16.10;99.90
45435;DHT22;31183;47.404;8.500;2023-08-08T07:37:23;16.20;99.90
45435;DHT22;31183;47.404;8.500;2023-08-08T07:39:53;16.30;99.90
45435;DHT22;31183;47.404;8.500;2023-08-08T07:42:19;16.30;99.90
45435;DHT22;31183;47.404;8.500;2023-08-08T07:44:46;16.30;99.90
45435;DHT22;31183;47.404;8.500;2023-08-08T07:47:13;16.40;99.90
45435;DHT22;31183;47.404;8.500;2023-08-08T07:49:39;16.40;99.90
45435;DHT22;31183;47.404;8.500;2023-08-08T07:52:06;16.40;99.90
45435;DHT22;31183;47.404;8.500;2023-08-08T07:54:34;16.30;99.90
45435;DHT22;31183;47.404;8.500;2023-08-08T07:57:01;16.40;99.90
45435;DHT22;31183;47.404;8.500;2023-08-08T07:59:28;16.40;99.90
45435;DHT22;31183;47.404;8.500;2023-08-08T08:01:54;16.50;99.90
45435;DHT22;31183;47.404;8.500;2023-08-08T08:04:21;16.50;99.90
45435;DHT22;31183;47.404;8.500;2023-08-08T08:06:48;16.60;99.90
45435;DHT22;31183;47.404;8.500;2023-08-08T08:09:14;16.60;99.90
45435;DHT22;31183;47.404;8.500;2023-08-08T08:11:41;16.60;99.90
45435;DHT22;31183;47.404;8.500;2023-08-08T08:14:07;16.60;99.90
45435;DHT22;31183;47.404;8.500;2023-08-08T08:16:34;16.60;99.90
45435;DHT22;31183;47.404;8.500;2023-08-08T08:19:01;16.80;99.90
45435;DHT22;31183;47.404;8.500;2023-08-08T08:21:28;16.80;99.90
45435;DHT22;31183;47.404;8.500;2023-08-08T08:23:55;16.90;99.90
45435;DHT22;31183;47.404;8.500;2023-08-08T08:26:21;17.10;99.90
45435;DHT22;31183;47.404;8.500;2023-08-08T08:28:48;17.40;99.90
45435;DHT22;31183;47.404;8.500;2023-08-08T08:31:14;17.50;99.90
45435;DHT22;31183;47.404;8.500;2023-08-08T08:33:41;17.70;99.90
45435;DHT22;31183;47.404;8.500;2023-08-08T08:36:08;17.90;99.90
45435;DHT22;31183;47.404;8.500;2023-08-08T08:38:35;18.20;99.90
45435;DHT22;31183;47.404;8.500;2023-08-08T08:41:02;18.40;99.90
45435;DHT22;31183;47.404;8.500;2023-08-08T08:43:30;18.80;99.90
45435;DHT22;31183;47.404;8.500;2023-08-08T08:45:59;19.10;99.90
45435;DHT22;31183;47.404;8.500;2023-08-08T08:48:27;19.40;98.70
45435;DHT22;31183;47.404;8.500;2023-08-08T08:50:54;19.60;97.40
45435;DHT22;31183;47.404;8.500;2023-08-08T08:53:20;19.80;97.10
45435;DHT22;31183;47.404;8.500;2023-08-08T08:55:49;19.90;96.20
45435;DHT22;31183;47.404;8.500;2023-08-08T08:58:18;19.90;97.10
45435;DHT22;31183;47.404;8.500;2023-08-08T09:00:44;19.90;97.10
45435;DHT22;31183;47.404;8.500;2023-08-08T09:03:13;20.10;95.40
45435;DHT22;31183;47.404;8.500;2023-08-08T09:05:41;20.30;93.80
45435;DHT22;31183;47.404;8.500;2023-08-08T09:08:08;20.30;93.80
45435;DHT22;31183;47.404;8.500;2023-08-08T09:10:35;20.30;92.00
45435;DHT22;31183;47.404;8.500;2023-08-08T09:13:02;20.30;93.50
45435;DHT22;31183;47.404;8.500;2023-08-08T09:15:33;20.40;92.30
45435;DHT22;31183;47.404;8.500;2023-08-08T09:18:00;20.40;91.20
45435;DHT22;31183;47.404;8.500;2023-08-08T09:20:27;20.40;91.60
45435;DHT22;31183;47.404;8.500;2023-08-08T09:22:55;20.50;93.20
45435;DHT22;31183;47.404;8.500;2023-08-08T09:25:22;20.60;91.50
45435;DHT22;31183;47.404;8.500;2023-08-08T09:27:53;20.70;90.80
45435;DHT22;31183;47.404;8.500;2023-08-08T09:30:20;20.80;89.30
45435;DHT22;31183;47.404;8.500;2023-08-08T09:32:47;20.90;90.00
45435;DHT22;31183;47.404;8.500;2023-08-08T09:35:14;20.90;89.70
45435;DHT22;31183;47.404;8.500;2023-08-08T09:37:41;21.10;86.00
45435;DHT22;31183;47.404;8.500;2023-08-08T09:40:08;21.20;87.40
45435;DHT22;31183;47.404;8.500;2023-08-08T09:42:39;21.30;84.20
45435;DHT22;31183;47.404;8.500;2023-08-08T09:45:08;21.30;83.10
45435;DHT22;31183;47.404;8.500;2023-08-08T09:47:35;21.20;83.70
45435;DHT22;31183;47.404;8.500;2023-08-08T09:50:03;21.20;85.50
45435;DHT22;31183;47.404;8.500;2023-08-08T09:52:34;21.30;81.50
45435;DHT22;31183;47.404;8.500;2023-08-08T09:55:02;21.30;83.10
45435;DHT22;31183;47.404;8.500;2023-08-08T09:57:30;21.20;80.10
45435;DHT22;31183;47.404;8.500;2023-08-08T09:59:57;21.10;80.00
45435;DHT22;31183;47.404;8.500;2023-08-08T10:02:24;20.90;82.10
45435;DHT22;31183;47.404;8.500;2023-08-08T10:04:52;20.80;81.10
45435;DHT22;31183;47.404;8.500;2023-08-08T10:07:19;20.70;79.50
45435;DHT22;31183;47.404;8.500;2023-08-08T10:09:45;20.50;81.60
45435;DHT22;31183;47.404;8.500;2023-08-08T10:12:12;20.30;78.00
45435;DHT22;31183;47.404;8.500;2023-08-08T10:14:42;20.10;81.00
45435;DHT22;31183;47.404;8.500;2023-08-08T10:17:14;20.00;82.00
45435;DHT22;31183;47.404;8.500;2023-08-08T10:19:50;20.00;80.50
45435;DHT22;31183;47.404;8.500;2023-08-08T10:22:20;20.00;80.70
45435;DHT22;31183;47.404;8.500;2023-08-08T10:24:52;19.90;82.80
45435;DHT22;31183;47.404;8.500;2023-08-08T10:27:31;19.90;81.10
45435;DHT22;31183;47.404;8.500;2023-08-08T10:30:08;19.90;78.70
45435;DHT22;31183;47.404;8.500;2023-08-08T10:32:41;19.80;80.20
45435;DHT22;31183;47.404;8.500;2023-08-08T10:35:09;19.90;80.70
45435;DHT22;31183;47.404;8.500;2023-08-08T10:37:37;20.10;80.60
45435;DHT22;31183;47.404;8.500;2023-08-08T10:40:05;20.20;78.70
45435;DHT22;31183;47.404;8.500;2023-08-08T10:42:43;20.20;78.40
45435;DHT22;31183;47.404;8.500;2023-08-08T10:45:13;20.30;80.10
45435;DHT22;31183;47.404;8.500;2023-08-08T10:47:41;20.20;80.00
45435;DHT22;31183;47.404;8.500;2023-08-08T10:50:11;20.30;79.30
45435;DHT22;31183;47.404;8.500;2023-08-08T10:52:58;20.40;77.30
45435;DHT22;31183;47.404;8.500;2023-08-08T10:55:31;20.50;76.00
45435;DHT22;31183;47.404;8.500;2023-08-08T10:58:06;20.40;77.70
45435;DHT22;31183;47.404;8.500;2023-08-08T11:00:35;20.50;78.00
45435;DHT22;31183;47.404;8.500;2023-08-08T11:03:03;20.50;76.20
45435;DHT22;31183;47.404;8.500;2023-08-08T11:05:32;20.40;77.30
45435;DHT22;31183;47.404;8.500;2023-08-08T11:08:04;20.30;77.90
45435;DHT22;31183;47.404;8.500;2023-08-08T11:10:39;20.30;77.90
45435;DHT22;31183;47.404;8.500;2023-08-08T11:13:07;20.40;78.60
45435;DHT22;31183;47.404;8.500;2023-08-08T11:15:34;20.60;76.90
45435;DHT22;31183;47.404;8.500;2023-08-08T11:18:02;20.60;78.70
45435;DHT22;31183;47.404;8.500;2023-08-08T11:20:31;20.50;78.40
45435;DHT22;31183;47.404;8.500;2023-08-08T11:22:59;20.40;80.10
45435;DHT22;31183;47.404;8.500;2023-08-08T11:25:28;20.40;80.40
45435;DHT22;31183;47.404;8.500;2023-08-08T11:27:57;20.40;81.40
45435;DHT22;31183;47.404;8.500;2023-08-08T11:30:26;20.30;82.40
45435;DHT22;31183;47.404;8.500;2023-08-08T11:32:54;20.40;82.40
45435;DHT22;31183;47.404;8.500;2023-08-08T11:35:24;20.60;81.60
45435;DHT22;31183;47.404;8.500;2023-08-08T11:37:53;20.70;79.60
45435;DHT22;31183;47.404;8.500;2023-08-08T11:40:20;20.80;77.40
45435;DHT22;31183;47.404;8.500;2023-08-08T11:42:48;20.70;78.50
45435;DHT22;31183;47.404;8.500;2023-08-08T11:45:17;20.70;75.00
45435;DHT22;31183;47.404;8.500;2023-08-08T11:47:47;20.70;77.00
45435;DHT22;31183;47.404;8.500;2023-08-08T11:50:14;20.70;74.70
45435;DHT22;31183;47.404;8.500;2023-08-08T11:52:44;20.60;72.30
45435;DHT22;31183;47.404;8.500;2023-08-08T11:55:12;20.40;74.50
45435;DHT22;31183;47.404;8.500;2023-08-08T11:57:39;20.40;72.30
45435;DHT22;31183;47.404;8.500;2023-08-08T12:00:08;20.40;74.30
45435;DHT22;31183;47.404;8.500;2023-08-08T12:02:35;20.50;72.40
45435;DHT22;31183;47.404;8.500;2023-08-08T12:05:09;20.50;74.50
45435;DHT22;31183;47.404;8.500;2023-08-08T12:07:38;20.60;77.30
45435;DHT22;31183;47.404;8.500;2023-08-08T12:10:15;20.60;73.30
45435;DHT22;31183;47.404;8.500;2023-08-08T12:12:46;20.60;73.80
45435;DHT22;31183;47.404;8.500;2023-08-08T12:15:13;20.60;72.00
45435;DHT22;31183;47.404;8.500;2023-08-08T12:17:42;20.50;72.80
45435;DHT22;31183;47.404;8.500;2023-08-08T12:20:10;20.30;74.40
45435;DHT22;31183;47.404;8.500;2023-08-08T12:22:37;20.30;73.30
45435;DHT22;31183;47.404;8.500;2023-08-08T12:25:04;20.40;73.20
45435;DHT22;31183;47.404;8.500;2023-08-08T12:27:31;20.30;72.80
45435;DHT22;31183;47.404;8.500;2023-08-08T12:29:57;20.20;72.60
45435;DHT22;31183;47.404;8.500;2023-08-08T12:32:26;20.20;73.50
45435;DHT22;31183;47.404;8.500;2023-08-08T12:34:55;20.20;72.20
45435;DHT22;31183;47.404;8.500;2023-08-08T12:37:23;20.30;72.70
45435;DHT22;31183;47.404;8.500;2023-08-08T12:39:50;20.30;72.60
45435;DHT22;31183;47.404;8.500;2023-08-08T12:42:17;20.40;72.90
45435;DHT22;31183;47.404;8.500;2023-08-08T12:44:44;20.40;72.20
45435;DHT22;31183;47.404;8.500;2023-08-08T12:47:11;20.40;73.30
45435;DHT22;31183;47.404;8.500;2023-08-08T12:49:41;20.40;73.00
45435;DHT22;31183;47.404;8.500;2023-08-08T12:52:07;20.30;73.40
45435;DHT22;31183;47.404;8.500;2023-08-08T12:54:34;20.40;72.80
45435;DHT22;31183;47.404;8.500;2023-08-08T12:57:02;20.40;73.20
45435;DHT22;31183;47.404;8.500;2023-08-08T12:59:29;20.30;73.20
45435;DHT22;31183;47.404;8.500;2023-08-08T13:01:56;20.30;74.00
45435;DHT22;31183;47.404;8.500;2023-08-08T13:04:23;20.30;75.10
45435;DHT22;31183;47.404;8.500;2023-08-08T13:06:49;20.30;74.20
45435;DHT22;31183;47.404;8.500;2023-08-08T13:09:16;20.30;75.00
45435;DHT22;31183;47.404;8.500;2023-08-08T13:11:43;20.40;74.10
45435;DHT22;31183;47.404;8.500;2023-08-08T13:14:09;20.40;74.90
45435;DHT22;31183;47.404;8.500;2023-08-08T13:16:36;20.50;75.90
45435;DHT22;31183;47.404;8.500;2023-08-08T13:19:03;20.50;75.70
45435;DHT22;31183;47.404;8.500;2023-08-08T13:21:30;20.50;74.00
45435;DHT22;31183;47.404;8.500;2023-08-08T13:23:57;20.40;76.30
45435;DHT22;31183;47.404;8.500;2023-08-08T13:26:24;20.50;75.80
45435;DHT22;31183;47.404;8.500;2023-08-08T13:28:51;20.40;75.70
45435;DHT22;31183;47.404;8.500;2023-08-08T13:31:18;20.30;75.80
45435;DHT22;31183;47.404;8.500;2023-08-08T13:33:44;20.20;76.30
45435;DHT22;31183;47.404;8.500;2023-08-08T13:36:11;20.20;77.50
45435;DHT22;31183;47.404;8.500;2023-08-08T13:38:38;20.10;78.50
45435;DHT22;31183;47.404;8.500;2023-08-08T13:41:04;20.20;78.10
45435;DHT22;31183;47.404;8.500;2023-08-08T13:43:31;20.20;76.70
45435;DHT22;31183;47.404;8.500;2023-08-08T13:45:58;20.20;76.60
45435;DHT22;31183;47.404;8.500;2023-08-08T13:48:24;20.10;77.60
45435;DHT22;31183;47.404;8.500;2023-08-08T13:50:52;20.10;79.00
45435;DHT22;31183;47.404;8.500;2023-08-08T13:53:19;20.20;77.80
45435;DHT22;31183;47.404;8.500;2023-08-08T13:55:46;20.20;79.00
45435;DHT22;31183;47.404;8.500;2023-08-08T13:58:12;20.30;77.80
45435;DHT22;31183;47.404;8.500;2023-08-08T14:00:39;20.30;76.00
45435;DHT22;31183;47.404;8.500;2023-08-08T14:03:06;20.20;78.10
45435;DHT22;31183;47.404;8.500;2023-08-08T14:05:32;20.20;78.80
45435;DHT22;31183;47.404;8.500;2023-08-08T14:08:00;20.20;79.30
45435;DHT22;31183;47.404;8.500;2023-08-08T14:10:26;20.20;79.90
45435;DHT22;31183;47.404;8.500;2023-08-08T14:12:53;20.10;79.70
45435;DHT22;31183;47.404;8.500;2023-08-08T14:15:20;20.20;79.40
45435;DHT22;31183;47.404;8.500;2023-08-08T14:17:47;20.10;80.30
45435;DHT22;31183;47.404;8.500;2023-08-08T14:20:14;20.20;80.40
45435;DHT22;31183;47.404;8.500;2023-08-08T14:22:46;20.10;81.00
45435;DHT22;31183;47.404;8.500;2023-08-08T14:25:14;20.10;80.50
45435;DHT22;31183;47.404;8.500;2023-08-08T14:27:41;20.20;79.90
45435;DHT22;31183;47.404;8.500;2023-08-08T14:30:08;20.20;79.40
45435;DHT22;31183;47.404;8.500;2023-08-08T14:32:34;20.30;79.70
45435;DHT22;31183;47.404;8.500;2023-08-08T14:35:03;20.40;79.40
45435;DHT22;31183;47.404;8.500;2023-08-08T14:37:31;20.50;78.70
45435;DHT22;31183;47.404;8.500;2023-08-08T14:39:58;20.50;78.00
45435;DHT22;31183;47.404;8.500;2023-08-08T14:42:25;20.40;78.70
45435;DHT22;31183;47.404;8.500;2023-08-08T14:44:51;20.30;78.40
45435;DHT22;31183;47.404;8.500;2023-08-08T14:47:18;20.20;78.90
45435;DHT22;31183;47.404;8.500;2023-08-08T14:49:44;20.20;80.60
45435;DHT22;31183;47.404;8.500;2023-08-08T14:52:11;20.30;78.70
45435;DHT22;31183;47.404;8.500;2023-08-08T14:54:39;20.30;77.80
45435;DHT22;31183;47.404;8.500;2023-08-08T14:57:06;20.30;78.70
45435;DHT22;31183;47.404;8.500;2023-08-08T14:59:32;20.30;75.80
45435;DHT22;31183;47.404;8.500;2023-08-08T15:01:59;20.30;77.20
45435;DHT22;31183;47.404;8.500;2023-08-08T15:04:26;20.40;77.20
45435;DHT22;31183;47.404;8.500;2023-08-08T15:06:52;20.40;75.80
45435;DHT22;31183;47.404;8.500;2023-08-08T15:09:19;20.40;75.90
45435;DHT22;31183;47.404;8.500;2023-08-08T15:11:45;20.40;76.80
45435;DHT22;31183;47.404;8.500;2023-08-08T15:14:12;20.30;76.60
45435;DHT22;31183;47.404;8.500;2023-08-08T15:16:39;20.30;78.30
45435;DHT22;31183;47.404;8.500;2023-08-08T15:19:05;20.20;78.40
45435;DHT22;31183;47.404;8.500;2023-08-08T15:21:32;20.20;78.20
45435;DHT22;31183;47.404;8.500;2023-08-08T15:23:59;20.30;77.90
45435;DHT22;31183;47.404;8.500;2023-08-08T15:26:26;20.40;76.40
45435;DHT22;31183;47.404;8.500;2023-08-08T15:28:52;20.40;75.00
45435;DHT22;31183;47.404;8.500;2023-08-08T15:31:19;20.40;75.90
45435;DHT22;31183;47.404;8.500;2023-08-08T15:33:46;20.40;76.50